createdAt,value
2018-03-29T00:01:22.596Z,1.50
2018-03-29T00:03:50.054Z,1.67
2018-03-29T00:06:17.547Z,1.52
2018-03-29T00:08:45.814Z,1.90
2018-03-29T00:11:14.081Z,2.22
2018-03-29T00:13:41.561Z,2.53
2018-03-29T00:16:09.819Z,2.78
2018-03-29T00:18:37.301Z,4.15
2018-03-29T00:21:05.522Z,3.33
2018-03-29T00:23:33.006Z,2.72
2018-03-29T00:26:00.446Z,3.25
2018-03-29T00:28:27.921Z,2.78
2018-03-29T00:30:55.401Z,3.15
2018-03-29T00:33:23.663Z,3.10
2018-03-29T00:35:51.138Z,2.90
2018-03-29T00:38:19.365Z,2.97
2018-03-29T00:40:46.833Z,3.50
2018-03-29T00:43:14.283Z,3.40
2018-03-29T00:45:42.777Z,2.85
2018-03-29T00:48:10.237Z,3.85
2018-03-29T00:50:37.726Z,3.50
2018-03-29T00:53:17.773Z,3.58
2018-03-29T00:55:46.006Z,2.80
2018-03-29T00:58:13.458Z,3.83
2018-03-29T01:00:40.899Z,2.95
2018-03-29T01:03:08.409Z,4.15
2018-03-29T01:05:35.886Z,3.53
2018-03-29T01:08:04.125Z,3.67
2018-03-29T01:10:31.595Z,3.45
2018-03-29T01:12:59.102Z,3.62
2018-03-29T01:15:26.574Z,3.22
2018-03-29T01:17:54.068Z,4.15
2018-03-29T01:20:21.633Z,2.67
2018-03-29T01:22:49.131Z,2.78
2018-03-29T01:25:16.601Z,3.95
2018-03-29T01:27:44.045Z,2.60
2018-03-29T01:30:11.527Z,3.60
2018-03-29T01:32:38.982Z,3.15
2018-03-29T01:35:06.450Z,2.95
2018-03-29T01:37:33.899Z,3.53
2018-03-29T01:40:01.403Z,3.62
2018-03-29T01:42:28.845Z,2.80
2018-03-29T01:44:57.086Z,2.75
2018-03-29T01:47:24.590Z,3.28
2018-03-29T01:49:52.074Z,2.90
2018-03-29T01:52:19.525Z,3.15
2018-03-29T01:54:46.981Z,3.37
2018-03-29T01:57:15.223Z,3.40
2018-03-29T01:59:42.683Z,3.50
2018-03-29T02:02:10.162Z,5.72
2018-03-29T02:04:38.385Z,5.15
2018-03-29T02:07:05.881Z,3.47
2018-03-29T02:09:33.327Z,3.53
2018-03-29T02:12:00.791Z,4.93
2018-03-29T02:14:28.270Z,3.35
2018-03-29T02:16:56.537Z,3.35
2018-03-29T02:19:24.102Z,4.78
2018-03-29T02:21:51.589Z,3.70
2018-03-29T02:24:19.055Z,3.50
2018-03-29T02:26:46.509Z,5.18
2018-03-29T02:29:13.984Z,3.00
2018-03-29T02:31:41.429Z,3.55
2018-03-29T02:34:08.919Z,4.43
2018-03-29T02:36:36.379Z,3.55
2018-03-29T02:39:03.852Z,5.28
2018-03-29T02:41:31.300Z,3.75
2018-03-29T02:43:59.554Z,3.72
2018-03-29T02:46:27.074Z,4.20
2018-03-29T02:48:55.299Z,5.47
2018-03-29T02:51:22.758Z,3.87
2018-03-29T02:53:50.281Z,5.40
2018-03-29T02:56:17.769Z,3.75
2018-03-29T02:58:45.213Z,5.68
2018-03-29T03:01:12.684Z,4.70
2018-03-29T03:03:40.150Z,3.90
2018-03-29T03:06:07.639Z,3.55
2018-03-29T03:08:35.881Z,3.90
2018-03-29T03:11:03.351Z,5.60
2018-03-29T03:13:30.826Z,4.75
2018-03-29T03:15:59.064Z,5.53
2018-03-29T03:18:26.531Z,5.00
2018-03-29T03:20:53.981Z,4.40
2018-03-29T03:23:21.446Z,4.93
2018-03-29T03:25:48.900Z,3.75
2018-03-29T03:28:16.481Z,5.55
2018-03-29T03:30:43.936Z,5.62
2018-03-29T03:33:11.410Z,5.70
2018-03-29T03:35:39.636Z,5.75
2018-03-29T03:38:07.146Z,6.22
2018-03-29T03:40:35.358Z,5.85
2018-03-29T03:43:02.841Z,6.45
2018-03-29T03:45:30.329Z,4.35
2018-03-29T03:47:58.570Z,6.03
2018-03-29T03:50:26.058Z,6.18
2018-03-29T03:52:53.559Z,3.83
2018-03-29T03:55:21.032Z,4.57
2018-03-29T03:57:48.482Z,5.55
2018-03-29T04:00:15.963Z,4.45
2018-03-29T04:02:43.426Z,4.10
2018-03-29T04:05:10.927Z,4.97
2018-03-29T04:07:38.382Z,5.75
2018-03-29T04:10:05.835Z,4.85
2018-03-29T04:12:34.174Z,4.68
2018-03-29T04:15:01.623Z,4.57
2018-03-29T04:17:29.086Z,5.05
2018-03-29T04:19:56.549Z,6.45
2018-03-29T04:22:24.121Z,4.35
2018-03-29T04:24:51.700Z,5.22
2018-03-29T04:27:19.938Z,5.37
2018-03-29T04:29:47.398Z,4.87
2018-03-29T04:32:14.887Z,4.35
2018-03-29T04:34:43.139Z,5.95
2018-03-29T04:37:10.590Z,4.82
2018-03-29T04:39:38.055Z,7.05
2018-03-29T04:42:05.507Z,5.70
2018-03-29T04:44:33.069Z,8.25
2018-03-29T04:47:00.541Z,5.60
2018-03-29T04:49:28.007Z,5.90
2018-03-29T04:51:56.256Z,5.10
2018-03-29T04:54:23.763Z,5.68
2018-03-29T04:56:51.206Z,6.03
2018-03-29T04:59:19.471Z,5.50
2018-03-29T05:01:46.913Z,6.22
2018-03-29T05:04:14.376Z,4.87
2018-03-29T05:06:43.358Z,6.45
2018-03-29T05:09:10.838Z,4.87
2018-03-29T05:11:39.074Z,4.90
2018-03-29T05:14:06.536Z,5.20
2018-03-29T05:16:34.053Z,5.35
2018-03-29T05:19:01.518Z,5.32
2018-03-29T05:21:28.991Z,4.82
2018-03-29T05:23:56.437Z,5.75
2018-03-29T05:26:23.939Z,5.35
2018-03-29T05:28:51.502Z,7.68
2018-03-29T05:31:18.950Z,5.22
2018-03-29T05:33:46.434Z,6.80
2018-03-29T05:36:14.658Z,5.97
2018-03-29T05:38:42.137Z,8.32
2018-03-29T05:41:09.591Z,5.10
2018-03-29T05:43:37.089Z,7.80
2018-03-29T05:46:05.299Z,6.05
2018-03-29T05:48:32.783Z,5.95
2018-03-29T05:51:00.250Z,4.68
2018-03-29T05:53:27.726Z,4.78
2018-03-29T05:55:55.178Z,7.07
2018-03-29T05:58:22.675Z,6.53
2018-03-29T06:00:50.149Z,5.80
2018-03-29T06:03:17.645Z,5.00
2018-03-29T06:05:45.128Z,7.37
2018-03-29T06:08:13.380Z,7.60
2018-03-29T06:10:40.853Z,6.78
2018-03-29T06:13:08.308Z,7.25
2018-03-29T06:15:35.778Z,5.00
2018-03-29T06:18:04.020Z,7.10
2018-03-29T06:20:31.487Z,4.90
2018-03-29T06:22:58.942Z,4.57
2018-03-29T06:25:26.419Z,4.37
2018-03-29T06:27:54.687Z,6.22
2018-03-29T06:30:22.171Z,6.28
2018-03-29T06:32:49.634Z,4.97
2018-03-29T06:35:17.126Z,6.28
2018-03-29T06:37:44.593Z,4.40
2018-03-29T06:40:12.047Z,3.78
2018-03-29T06:42:39.556Z,4.30
2018-03-29T06:45:07.774Z,4.65
2018-03-29T06:47:35.258Z,4.40
2018-03-29T06:50:02.935Z,3.80
2018-03-29T06:52:31.200Z,5.35
2018-03-29T06:54:58.647Z,4.90
2018-03-29T06:57:26.137Z,4.50
2018-03-29T06:59:54.350Z,6.07
2018-03-29T07:02:21.822Z,4.25
2018-03-29T07:04:49.283Z,7.30
2018-03-29T07:07:16.762Z,5.43
2018-03-29T07:09:44.205Z,4.78
2018-03-29T07:12:12.446Z,4.57
2018-03-29T07:14:39.932Z,4.60
2018-03-29T07:17:07.402Z,10.52
2018-03-29T07:19:34.874Z,4.78
2018-03-29T07:22:02.341Z,4.07
2018-03-29T07:24:30.608Z,5.55
2018-03-29T07:26:58.830Z,5.10
2018-03-29T07:29:26.325Z,3.33
2018-03-29T07:31:53.784Z,4.32
2018-03-29T07:34:21.252Z,4.68
2018-03-29T07:36:48.712Z,3.85
2018-03-29T07:39:16.172Z,3.47
2018-03-29T07:41:43.646Z,3.47
2018-03-29T07:44:11.937Z,4.87
2018-03-29T07:46:39.407Z,10.45
2018-03-29T07:49:06.859Z,4.20
2018-03-29T07:51:34.342Z,3.45
2018-03-29T07:54:01.809Z,5.25
2018-03-29T07:56:29.322Z,3.42
2018-03-29T07:58:56.838Z,2.87
2018-03-29T08:01:24.294Z,5.47
2018-03-29T08:03:51.798Z,4.87
2018-03-29T08:06:20.011Z,3.08
2018-03-29T08:08:47.523Z,5.45
2018-03-29T08:11:15.737Z,3.17
2018-03-29T08:13:43.218Z,3.87
2018-03-29T08:16:10.682Z,3.92
2018-03-29T08:18:38.172Z,4.22
2018-03-29T08:21:05.640Z,5.53
2018-03-29T08:23:33.131Z,3.25
2018-03-29T08:26:00.598Z,3.72
2018-03-29T08:28:28.088Z,3.55
2018-03-29T08:30:56.334Z,3.97
2018-03-29T08:33:23.849Z,3.65
2018-03-29T08:35:51.333Z,3.70
2018-03-29T08:38:18.806Z,5.37
2018-03-29T08:40:46.302Z,3.90
2018-03-29T08:43:14.535Z,3.35
2018-03-29T08:45:42.038Z,3.90
2018-03-29T08:48:10.306Z,3.30
2018-03-29T08:50:37.800Z,3.10
2018-03-29T08:53:05.263Z,2.55
2018-03-29T08:55:32.753Z,2.95
2018-03-29T08:58:00.215Z,3.95
2018-03-29T09:00:27.714Z,2.95
2018-03-29T09:02:55.198Z,4.32
2018-03-29T09:05:22.658Z,3.97
2018-03-29T09:07:50.137Z,3.17
2018-03-29T09:10:17.626Z,3.50
2018-03-29T09:12:45.927Z,3.30
2018-03-29T09:15:13.394Z,3.37
2018-03-29T09:17:40.906Z,2.50
2018-03-29T09:20:08.383Z,4.03
2018-03-29T09:22:36.628Z,4.30
2018-03-29T09:25:04.104Z,4.50
2018-03-29T09:27:31.615Z,3.70
2018-03-29T09:29:59.094Z,5.00
2018-03-29T09:32:26.550Z,3.63
2018-03-29T09:34:54.031Z,3.40
2018-03-29T09:37:21.500Z,3.23
2018-03-29T09:39:49.044Z,3.00
2018-03-29T09:42:16.504Z,3.77
2018-03-29T09:44:44.000Z,4.37
2018-03-29T09:47:11.475Z,2.90
2018-03-29T09:49:38.988Z,2.67
2018-03-29T09:52:07.237Z,3.80
2018-03-29T09:54:35.368Z,3.33
2018-03-29T09:57:03.096Z,2.80
2018-03-29T09:59:30.609Z,3.00
2018-03-29T10:01:58.114Z,3.23
2018-03-29T10:04:25.587Z,2.23
2018-03-29T10:06:59.927Z,3.67
2018-03-29T10:09:27.397Z,3.17
2018-03-29T10:11:54.885Z,3.43
2018-03-29T10:14:22.366Z,3.00
2018-03-29T10:16:50.640Z,3.30
2018-03-29T10:19:18.094Z,3.80
2018-03-29T10:21:45.577Z,2.73
2018-03-29T10:24:13.823Z,2.87
2018-03-29T10:26:41.307Z,2.37
2018-03-29T10:29:09.544Z,2.43
2018-03-29T10:31:37.041Z,2.00
2018-03-29T10:34:05.274Z,3.20
2018-03-29T10:36:32.781Z,2.60
2018-03-29T10:39:01.037Z,2.43
2018-03-29T10:41:28.487Z,2.40
2018-03-29T10:43:55.981Z,2.50
2018-03-29T10:46:23.446Z,2.30
2018-03-29T10:48:52.057Z,2.97
2018-03-29T10:51:19.549Z,2.70
2018-03-29T10:53:47.816Z,2.30
2018-03-29T10:56:15.709Z,1.97
2018-03-29T10:58:43.966Z,3.20
2018-03-29T11:01:11.453Z,2.20
2018-03-29T11:03:39.703Z,2.00
2018-03-29T11:06:07.163Z,3.20
2018-03-29T11:08:34.644Z,4.70
2018-03-29T11:11:02.147Z,2.77
2018-03-29T11:13:29.647Z,3.00
2018-03-29T11:15:57.949Z,2.00
2018-03-29T11:18:25.394Z,2.83
2018-03-29T11:20:53.688Z,2.87
2018-03-29T11:23:21.140Z,2.70
2018-03-29T11:25:48.607Z,2.30
2018-03-29T11:28:16.087Z,2.60
2018-03-29T11:30:43.552Z,2.83
2018-03-29T11:33:11.054Z,2.40
2018-03-29T11:35:39.319Z,2.10
2018-03-29T11:38:07.589Z,5.00
2018-03-29T11:40:35.082Z,2.10
2018-03-29T11:43:03.691Z,3.87
2018-03-29T11:45:31.151Z,1.87
2018-03-29T11:47:58.638Z,2.47
2018-03-29T11:50:26.116Z,2.20
2018-03-29T11:52:54.381Z,2.53
2018-03-29T11:55:22.645Z,2.70
2018-03-29T11:57:50.146Z,2.23
2018-03-29T12:00:17.640Z,2.63
2018-03-29T12:02:45.095Z,2.90
2018-03-29T12:05:12.587Z,2.60
2018-03-29T12:07:40.068Z,2.87
2018-03-29T12:10:07.552Z,2.37
2018-03-29T12:12:35.022Z,3.80
2018-03-29T12:15:02.586Z,2.67
2018-03-29T12:17:30.070Z,3.67
2018-03-29T12:19:57.579Z,5.40
2018-03-29T12:22:25.446Z,3.20
2018-03-29T12:24:52.969Z,4.17
2018-03-29T12:27:20.450Z,3.30
2018-03-29T12:29:47.937Z,2.90
2018-03-29T12:32:16.658Z,4.53
2018-03-29T12:34:44.150Z,2.80
2018-03-29T12:37:11.653Z,3.43
2018-03-29T12:39:39.129Z,2.97
2018-03-29T12:42:06.655Z,2.67
2018-03-29T12:44:34.079Z,2.50
2018-03-29T12:47:02.351Z,2.37
2018-03-29T12:49:30.575Z,2.83
2018-03-29T12:51:58.096Z,2.63
2018-03-29T12:54:38.392Z,2.80
2018-03-29T12:57:17.886Z,4.13
2018-03-29T12:59:46.115Z,2.30
2018-03-29T13:02:13.595Z,2.53
2018-03-29T13:04:42.268Z,4.77
2018-03-29T13:07:09.736Z,1.93
2018-03-29T13:09:37.230Z,3.17
2018-03-29T13:12:04.725Z,1.70
2018-03-29T13:14:32.233Z,1.83
2018-03-29T13:17:00.526Z,2.53
2018-03-29T13:19:28.019Z,4.30
2018-03-29T13:21:55.462Z,8.10
2018-03-29T13:24:22.946Z,2.23
2018-03-29T13:26:50.426Z,2.60
2018-03-29T13:29:18.698Z,2.40
2018-03-29T13:31:46.189Z,14.87
2018-03-29T13:34:14.460Z,4.83
2018-03-29T13:36:42.693Z,3.40
2018-03-29T13:39:10.184Z,2.30
2018-03-29T13:41:38.797Z,14.57
2018-03-29T13:44:06.288Z,3.50
2018-03-29T13:46:33.759Z,12.33
2018-03-29T13:49:01.302Z,8.87
2018-03-29T13:51:28.857Z,3.53
2018-03-29T13:53:56.354Z,2.53
2018-03-29T13:56:23.864Z,1.67
2018-03-29T13:58:51.320Z,8.97
2018-03-29T14:01:18.801Z,3.13
2018-03-29T14:03:46.286Z,10.33
2018-03-29T14:06:14.546Z,3.90
2018-03-29T14:08:42.009Z,4.17
2018-03-29T14:11:09.519Z,10.20
2018-03-29T14:13:36.978Z,4.47
2018-03-29T14:16:04.497Z,8.97
2018-03-29T14:18:32.742Z,5.57
2018-03-29T14:21:00.202Z,6.60
2018-03-29T14:23:27.698Z,7.80
2018-03-29T14:25:55.935Z,10.67
2018-03-29T14:28:23.442Z,14.70
2018-03-29T14:30:51.663Z,5.33
2018-03-29T14:33:19.163Z,8.43
2018-03-29T14:35:47.404Z,2.73
2018-03-29T14:38:14.903Z,4.43
2018-03-29T14:40:42.387Z,3.07
2018-03-29T14:43:09.941Z,2.90
2018-03-29T14:45:37.414Z,2.40
2018-03-29T14:48:04.933Z,3.53
2018-03-29T14:50:33.173Z,2.50
2018-03-29T14:53:00.692Z,2.87
2018-03-29T14:55:28.215Z,3.10
2018-03-29T14:57:56.483Z,2.37
2018-03-29T15:00:24.731Z,2.60
2018-03-29T15:02:52.228Z,2.47
2018-03-29T15:05:20.506Z,4.70
2018-03-29T15:07:48.757Z,6.13
2018-03-29T15:10:17.102Z,3.10
2018-03-29T15:12:44.553Z,2.77
2018-03-29T15:15:12.028Z,4.87
2018-03-29T15:17:39.494Z,4.07
2018-03-29T15:20:06.997Z,6.20
2018-03-29T15:22:35.480Z,4.40
2018-03-29T15:25:03.843Z,2.60
2018-03-29T15:27:31.308Z,3.63
2018-03-29T15:29:59.561Z,4.77
2018-03-29T15:32:27.774Z,5.80
2018-03-29T15:34:55.304Z,5.83
2018-03-29T15:37:22.823Z,3.17
2018-03-29T15:39:50.280Z,3.93
2018-03-29T15:42:17.763Z,3.80
2018-03-29T15:44:45.247Z,3.53
2018-03-29T15:47:13.498Z,4.27
2018-03-29T15:49:40.971Z,5.43
2018-03-29T15:52:08.454Z,7.27
2018-03-29T15:54:35.929Z,3.60
2018-03-29T15:57:03.450Z,4.70
2018-03-29T15:59:30.930Z,5.10
2018-03-29T16:01:59.166Z,13.33
2018-03-29T16:04:26.661Z,10.13
2018-03-29T16:06:54.162Z,4.03
2018-03-29T16:09:21.644Z,5.17
2018-03-29T16:11:49.135Z,17.30
2018-03-29T16:14:17.410Z,4.70
2018-03-29T16:16:45.655Z,6.33
2018-03-29T16:19:13.142Z,4.63
2018-03-29T16:21:40.601Z,14.20
2018-03-29T16:24:08.878Z,20.80
2018-03-29T16:26:36.354Z,5.70
2018-03-29T16:29:03.864Z,4.00
2018-03-29T16:31:31.422Z,7.80
2018-03-29T16:33:58.880Z,9.77
2018-03-29T16:36:26.397Z,6.63
2018-03-29T16:38:53.850Z,7.80
2018-03-29T16:41:21.339Z,6.60
2018-03-29T16:43:48.851Z,4.37
2018-03-29T16:46:16.363Z,4.30
2018-03-29T16:48:43.898Z,6.47
2018-03-29T16:51:11.388Z,6.30
2018-03-29T16:53:38.928Z,8.67
2018-03-29T16:56:06.382Z,4.67
2018-03-29T16:58:34.647Z,4.97
2018-03-29T17:01:02.154Z,7.37
2018-03-29T17:03:29.647Z,5.97
2018-03-29T17:05:57.171Z,6.23
2018-03-29T17:08:24.775Z,5.03
2018-03-29T17:10:52.244Z,4.63
2018-03-29T17:13:19.731Z,6.07
2018-03-29T17:15:47.278Z,7.77
2018-03-29T17:18:14.743Z,8.37
2018-03-29T17:20:42.328Z,5.23
2018-03-29T17:23:10.580Z,5.00
2018-03-29T17:25:38.070Z,4.03
2018-03-29T17:28:06.315Z,4.70
2018-03-29T17:30:33.828Z,6.53
2018-03-29T17:33:01.334Z,5.97
2018-03-29T17:35:28.854Z,7.95
2018-03-29T17:37:56.340Z,4.10
2018-03-29T17:40:23.850Z,4.65
2018-03-29T17:42:51.328Z,3.58
2018-03-29T17:45:18.889Z,6.07
2018-03-29T17:47:46.355Z,5.20
2018-03-29T17:50:13.873Z,4.82
2018-03-29T17:52:42.105Z,6.68
2018-03-29T17:55:10.352Z,4.72
2018-03-29T17:57:37.877Z,5.72
2018-03-29T18:00:06.121Z,6.95
2018-03-29T18:02:33.648Z,7.93
2018-03-29T18:05:01.147Z,10.85
2018-03-29T18:07:28.620Z,6.50
2018-03-29T18:09:56.131Z,5.95
2018-03-29T18:12:23.635Z,5.82
2018-03-29T18:14:51.855Z,8.23
2018-03-29T18:17:19.349Z,9.88
2018-03-29T18:19:46.832Z,7.50
2018-03-29T18:22:15.098Z,8.30
2018-03-29T18:24:42.559Z,7.28
2018-03-29T18:27:10.081Z,7.90
2018-03-29T18:29:37.601Z,8.50
2018-03-29T18:32:05.866Z,8.40
2018-03-29T18:34:34.111Z,8.48
2018-03-29T18:37:01.638Z,8.95
2018-03-29T18:39:29.113Z,9.98
2018-03-29T18:41:56.580Z,9.88
2018-03-29T18:44:24.073Z,7.82
2018-03-29T18:46:52.299Z,10.70
2018-03-29T18:49:19.827Z,8.57
2018-03-29T18:51:47.286Z,9.77
2018-03-29T18:54:14.778Z,7.55
2018-03-29T18:56:42.286Z,7.78
2018-03-29T18:59:10.564Z,9.82
2018-03-29T19:01:38.092Z,8.85
2018-03-29T19:04:05.659Z,12.70
2018-03-29T19:06:33.935Z,9.43
2018-03-29T19:09:01.463Z,10.48
2018-03-29T19:11:28.967Z,9.27
2018-03-29T19:13:57.249Z,10.15
2018-03-29T19:16:24.739Z,12.70
2018-03-29T19:18:52.246Z,12.82
2018-03-29T19:21:19.850Z,10.70
2018-03-29T19:23:47.240Z,14.40
2018-03-29T19:26:14.739Z,12.82
2018-03-29T19:28:42.971Z,15.05
2018-03-29T19:31:10.497Z,11.25
2018-03-29T19:33:38.032Z,12.55
2018-03-29T19:36:07.254Z,10.25
2018-03-29T19:38:34.750Z,13.35
2018-03-29T19:41:02.969Z,14.05
2018-03-29T19:43:31.245Z,12.05
2018-03-29T19:45:59.496Z,12.43
2018-03-29T19:48:28.486Z,13.48
2018-03-29T19:50:55.978Z,15.75
2018-03-29T19:53:24.278Z,21.90
2018-03-29T19:55:51.790Z,17.80
2018-03-29T19:58:19.301Z,18.35
2018-03-29T20:00:48.102Z,15.20
2018-03-29T20:03:15.619Z,19.10
2018-03-29T20:05:44.116Z,9.88
2018-03-29T20:08:11.624Z,15.15
2018-03-29T20:10:39.101Z,17.05
2018-03-29T20:13:06.589Z,19.83
2018-03-29T20:15:34.088Z,23.48
2018-03-29T20:18:01.598Z,24.80
2018-03-29T20:20:29.126Z,33.90
2018-03-29T20:22:56.592Z,35.05
2018-03-29T20:25:24.081Z,28.27
2018-03-29T20:27:51.550Z,28.73
2018-03-29T20:30:19.222Z,48.28
2018-03-29T20:32:46.696Z,42.62
2018-03-29T20:35:14.206Z,50.45
2018-03-29T20:37:42.502Z,70.35
2018-03-29T20:40:10.013Z,46.00
2018-03-29T20:42:37.471Z,59.60
2018-03-29T20:45:04.970Z,32.05
2018-03-29T20:47:32.472Z,45.45
2018-03-29T20:49:59.978Z,28.87
2018-03-29T20:52:27.489Z,24.52
2018-03-29T20:54:54.984Z,31.60
2018-03-29T20:57:23.315Z,24.65
2018-03-29T20:59:50.793Z,28.77
2018-03-29T21:02:18.304Z,43.63
2018-03-29T21:04:45.777Z,31.17
2018-03-29T21:07:13.315Z,32.33
2018-03-29T21:09:40.812Z,168.98
2018-03-29T21:12:08.349Z,57.95
2018-03-29T21:14:35.854Z,72.40
2018-03-29T21:17:03.345Z,66.30
2018-03-29T21:19:30.862Z,56.58
2018-03-29T21:21:58.350Z,75.37
2018-03-29T21:24:26.671Z,59.58
2018-03-29T21:26:54.162Z,44.67
2018-03-29T21:29:21.651Z,36.75
2018-03-29T21:31:49.157Z,46.15
2018-03-29T21:34:16.717Z,54.25
2018-03-29T21:36:44.179Z,33.67
2018-03-29T21:39:11.694Z,27.08
2018-03-29T21:41:39.201Z,45.25
2018-03-29T21:44:06.710Z,44.58
2018-03-29T21:46:34.193Z,40.10
2018-03-29T21:49:01.667Z,32.60
2018-03-29T21:51:29.191Z,47.22
2018-03-29T21:53:56.710Z,88.37
2018-03-29T21:56:24.208Z,31.45
2018-03-29T21:58:51.702Z,31.92
2018-03-29T22:01:19.185Z,32.35
2018-03-29T22:03:46.672Z,32.33
2018-03-29T22:06:14.172Z,24.20
2018-03-29T22:08:41.667Z,29.35
2018-03-29T22:11:09.961Z,22.65
2018-03-29T22:13:44.033Z,21.73
2018-03-29T22:16:11.506Z,27.70
2018-03-29T22:18:38.998Z,22.65
2018-03-29T22:21:06.476Z,22.25
2018-03-29T22:23:33.978Z,17.45
2018-03-29T22:26:02.220Z,22.15
2018-03-29T22:28:29.726Z,28.92
2018-03-29T22:30:58.015Z,22.27
2018-03-29T22:33:25.481Z,24.90
2018-03-29T22:35:52.956Z,27.45
2018-03-29T22:38:20.431Z,21.42
2018-03-29T22:40:47.933Z,22.83
2018-03-29T22:43:16.207Z,23.62
2018-03-29T22:45:44.512Z,39.45
2018-03-29T22:48:12.514Z,25.58
2018-03-29T22:50:40.935Z,22.52
2018-03-29T22:53:09.146Z,36.92
2018-03-29T22:55:36.641Z,31.80
2018-03-29T22:58:04.089Z,29.50
2018-03-29T23:00:35.547Z,29.67
2018-03-29T23:03:03.034Z,40.25
2018-03-29T23:05:31.289Z,22.48
2018-03-29T23:07:58.756Z,27.02
2018-03-29T23:10:26.240Z,13.80
2018-03-29T23:12:53.717Z,22.73
2018-03-29T23:15:21.202Z,23.73
2018-03-29T23:17:48.719Z,26.95
2018-03-29T23:20:16.214Z,27.58
2018-03-29T23:22:44.158Z,30.95
2018-03-29T23:25:11.617Z,36.17
2018-03-29T23:27:39.144Z,29.48
2018-03-29T23:30:07.363Z,32.20
2018-03-29T23:32:34.864Z,32.95
2018-03-29T23:35:02.389Z,29.90
2018-03-29T23:37:30.582Z,24.73
2018-03-29T23:39:58.038Z,16.15
2018-03-29T23:42:25.547Z,23.38
2018-03-29T23:44:53.005Z,21.42
2018-03-29T23:47:20.542Z,25.05
2018-03-29T23:49:48.799Z,24.33
2018-03-29T23:52:16.269Z,17.77
2018-03-29T23:54:43.762Z,19.12
2018-03-29T23:57:11.242Z,11.65
2018-03-29T23:59:38.826Z,13.52
